Time;durP1;ratioP1;P1;durP2;ratioP2;P2;SDS_P1;SDS_P2;PMS_P1;PMS_P2;Temp;Humidity;BMP_temperature;BMP_pressure;BME280_temperature;BME280_humidity;BME280_pressure;Samples;Min_cycle;Max_cycle;Signal;HPM_P1;HPM_P2
2024/01/23 00:02:02;;;;;;;28.77;20.52;;;6.90;79.60;;;;;;4980354;28;20055;-80
2024/01/23 00:04:28;;;;;;;29.77;21.33;;;6.90;79.80;;;;;;4990164;28;20042;-80
2024/01/23 00:06:54;;;;;;;27.77;20.60;;;6.90;79.70;;;;;;4980167;28;20042;-80
2024/01/23 00:09:19;;;;;;;33.15;21.40;;;6.90;79.50;;;;;;4984381;28;20034;-81
2024/01/23 00:11:45;;;;;;;31.13;21.40;;;6.90;79.90;;;;;;4980720;28;20041;-81
2024/01/23 00:14:11;;;;;;;32.95;21.75;;;6.80;80.00;;;;;;4980290;28;20473;-80
2024/01/23 00:16:36;;;;;;;31.50;21.80;;;6.80;79.90;;;;;;4976544;28;20408;-80
2024/01/23 00:19:02;;;;;;;28.80;21.77;;;6.80;79.80;;;;;;4942884;28;20034;-80
2024/01/23 00:21:29;;;;;;;27.98;21.20;;;6.80;80.10;;;;;;4983062;28;20034;-81
2024/01/23 00:23:55;;;;;;;31.73;21.95;;;6.80;80.30;;;;;;4987463;28;20030;-77
2024/01/23 00:26:21;;;;;;;33.58;23.67;;;6.80;80.40;;;;;;4985770;28;20093;-80
2024/01/23 00:28:46;;;;;;;31.05;23.08;;;6.70;80.40;;;;;;4992447;28;20031;-80
2024/01/23 00:31:12;;;;;;;35.70;24.13;;;6.70;80.40;;;;;;4982078;28;20069;-79
2024/01/23 00:33:38;;;;;;;31.60;23.20;;;6.70;80.40;;;;;;4978185;28;20058;-79
2024/01/23 00:36:04;;;;;;;31.02;23.38;;;6.70;80.60;;;;;;4989391;28;20034;-79
2024/01/23 00:38:30;;;;;;;30.48;22.70;;;6.60;80.90;;;;;;4975756;28;20062;-79
2024/01/23 00:40:55;;;;;;;33.50;23.73;;;6.60;81.00;;;;;;4987072;28;20488;-80
2024/01/23 00:43:21;;;;;;;31.33;22.83;;;6.60;81.00;;;;;;4981240;28;20103;-79
2024/01/23 00:45:47;;;;;;;35.60;25.17;;;6.60;81.50;;;;;;4984357;28;20115;-79
2024/01/23 00:48:12;;;;;;;32.67;23.92;;;6.60;81.90;;;;;;4993161;28;20464;-80
2024/01/23 00:50:38;;;;;;;32.10;24.35;;;6.60;82.00;;;;;;4983677;28;20033;-80
2024/01/23 00:53:04;;;;;;;38.40;26.00;;;6.50;82.10;;;;;;4977250;28;20026;-80
2024/01/23 00:55:29;;;;;;;40.17;25.20;;;6.50;82.10;;;;;;4957474;28;20457;-80
2024/01/23 00:57:55;;;;;;;33.80;25.00;;;6.40;82.00;;;;;;4974911;28;20023;-80
2024/01/23 01:00:21;;;;;;;32.15;24.25;;;6.40;82.00;;;;;;4976834;28;20035;-77
2024/01/23 01:02:46;;;;;;;38.15;24.88;;;6.30;82.00;;;;;;4978420;28;20039;-77
2024/01/23 01:05:12;;;;;;;39.40;28.85;;;6.30;82.10;;;;;;4974808;28;20382;-77
2024/01/23 01:07:38;;;;;;;37.85;27.10;;;6.30;82.20;;;;;;4983443;28;20030;-76
2024/01/23 01:10:04;;;;;;;38.63;28.40;;;6.30;82.20;;;;;;4992934;28;20038;-77
2024/01/23 01:12:30;;;;;;;38.45;27.73;;;6.20;82.40;;;;;;4976692;28;20116;-77
2024/01/23 01:14:56;;;;;;;39.40;27.05;;;6.20;82.60;;;;;;4979161;28;20453;-77
2024/01/23 01:17:21;;;;;;;39.35;27.98;;;6.20;82.70;;;;;;4974627;28;20027;-77
2024/01/23 01:19:48;;;;;;;41.25;28.48;;;6.20;82.90;;;;;;4975013;28;20126;-77
2024/01/23 01:22:14;;;;;;;41.08;29.58;;;6.10;82.80;;;;;;4975159;28;20562;-77
2024/01/23 01:24:39;;;;;;;41.78;28.77;;;6.10;82.80;;;;;;4984488;28;20063;-77
2024/01/23 01:27:06;;;;;;;43.75;29.67;;;6.10;82.90;;;;;;4986935;28;20038;-77
2024/01/23 01:29:31;;;;;;;44.08;30.27;;;6.10;83.30;;;;;;4982461;28;20342;-77
2024/01/23 01:31:57;;;;;;;40.90;29.50;;;6.10;83.30;;;;;;4956943;28;20042;-76
2024/01/23 01:34:23;;;;;;;42.88;28.73;;;6.00;83.30;;;;;;4974833;28;20474;-77
2024/01/23 01:36:48;;;;;;;40.58;28.70;;;6.00;83.30;;;;;;4973671;28;20041;-77
2024/01/23 01:39:14;;;;;;;42.55;29.88;;;6.00;83.40;;;;;;4974470;28;20038;-77
2024/01/23 01:41:40;;;;;;;42.00;29.67;;;6.00;83.30;;;;;;4974394;28;20102;-77
2024/01/23 01:44:07;;;;;;;44.53;30.55;;;6.00;83.50;;;;;;4976122;28;20473;-77
2024/01/23 01:46:33;;;;;;;43.15;30.42;;;5.90;83.40;;;;;;4961671;28;20027;-77
2024/01/23 01:48:59;;;;;;;45.38;29.98;;;5.90;83.50;;;;;;4991944;28;20053;-77
2024/01/23 01:51:27;;;;;;;46.78;31.10;;;5.90;83.60;;;;;;4982994;28;20453;-77
2024/01/23 01:53:52;;;;;;;48.85;33.33;;;5.90;83.80;;;;;;4976878;28;20035;-77
2024/01/23 01:56:20;;;;;;;43.15;29.25;;;5.90;84.00;;;;;;4984821;28;20057;-77
2024/01/23 01:58:47;;;;;;;45.58;31.48;;;5.90;84.20;;;;;;4974601;28;20015;-77
2024/01/23 02:01:13;;;;;;;39.83;27.50;;;5.90;84.20;;;;;;4982280;28;20031;-77
2024/01/23 02:03:39;;;;;;;46.75;31.60;;;5.90;84.10;;;;;;4976924;28;20120;-76
2024/01/23 02:06:06;;;;;;;48.30;33.53;;;5.80;84.30;;;;;;4993150;28;20038;-77
2024/01/23 02:08:34;;;;;;;47.20;32.40;;;5.80;84.70;;;;;;4979466;28;20035;-77
2024/01/23 02:11:01;;;;;;;45.45;32.58;;;5.80;85.00;;;;;;4956160;28;20054;-77
2024/01/23 02:13:27;;;;;;;47.53;31.40;;;5.80;84.90;;;;;;4974044;28;20038;-77
2024/01/23 02:15:53;;;;;;;46.45;31.83;;;5.80;84.90;;;;;;4955896;28;20037;-77
2024/01/23 02:18:18;;;;;;;45.28;31.20;;;5.70;84.80;;;;;;4973952;28;20050;-77
2024/01/23 02:20:45;;;;;;;46.97;32.78;;;5.70;84.90;;;;;;4974055;28;20034;-77
2024/01/23 02:23:14;;;;;;;45.40;31.75;;;5.70;85.30;;;;;;4973618;28;20046;-77
2024/01/23 02:25:41;;;;;;;49.85;33.60;;;5.70;85.50;;;;;;4973747;28;20035;-76
2024/01/23 02:28:07;;;;;;;42.15;28.75;;;5.60;85.30;;;;;;4974028;28;20026;-78
2024/01/23 02:30:35;;;;;;;49.22;31.23;;;5.60;85.50;;;;;;4984569;28;20046;-78
2024/01/23 02:33:03;;;;;;;46.65;32.03;;;5.50;85.70;;;;;;4957792;28;20022;-78
2024/01/23 02:35:32;;;;;;;44.53;32.53;;;5.50;86.00;;;;;;4992865;28;20029;-78
2024/01/23 02:37:58;;;;;;;47.15;32.80;;;5.50;86.60;;;;;;4971128;28;20087;-79
2024/01/23 02:40:24;;;;;;;47.10;33.22;;;5.60;86.20;;;;;;4981237;28;20029;-79
2024/01/23 02:42:50;;;;;;;49.88;32.60;;;5.60;86.10;;;;;;4988074;28;20027;-79
2024/01/23 02:45:16;;;;;;;48.17;31.98;;;5.60;86.20;;;;;;4986700;28;20042;-79
2024/01/23 02:47:41;;;;;;;47.70;32.85;;;5.60;85.70;;;;;;4986823;28;20018;-79
2024/01/23 02:50:08;;;;;;;45.53;32.58;;;5.60;85.70;;;;;;4978515;28;20042;-79
2024/01/23 02:52:34;;;;;;;43.42;30.08;;;5.60;85.60;;;;;;4963606;28;20117;-79
2024/01/23 02:55:00;;;;;;;45.08;30.20;;;5.50;85.20;;;;;;4977240;28;20524;-79
2024/01/23 02:57:27;;;;;;;44.70;30.95;;;5.50;85.40;;;;;;4982515;28;20472;-79
2024/01/23 02:59:53;;;;;;;48.33;33.72;;;5.40;85.50;;;;;;4996395;28;20033;-80
2024/01/23 03:02:19;;;;;;;46.70;33.65;;;5.40;85.50;;;;;;4996277;28;20553;-79
2024/01/23 03:04:45;;;;;;;50.38;33.80;;;5.40;85.50;;;;;;4981058;28;20062;-80
2024/01/23 03:07:12;;;;;;;39.60;29.30;;;5.30;85.40;;;;;;4977258;28;20035;-79
2024/01/23 03:09:38;;;;;;;44.45;32.03;;;5.20;85.70;;;;;;4976777;28;20039;-79
2024/01/23 03:12:14;;;;;;;45.42;31.92;;;5.20;86.10;;;;;;4969937;28;20512;-79
2024/01/23 03:14:40;;;;;;;43.95;30.27;;;5.20;86.10;;;;;;4967608;28;20041;-79
2024/01/23 03:17:06;;;;;;;45.28;32.47;;;5.10;86.10;;;;;;4980675;28;20031;-80
2024/01/23 03:19:31;;;;;;;43.28;32.10;;;5.10;86.30;;;;;;4991952;28;20516;-80
2024/01/23 03:21:57;;;;;;;45.55;31.90;;;5.10;86.40;;;;;;4977525;28;20051;-80
2024/01/23 03:24:23;;;;;;;43.47;31.48;;;5.20;86.20;;;;;;4977544;28;20058;-79
2024/01/23 03:26:48;;;;;;;46.40;31.67;;;5.20;86.30;;;;;;4979758;28;20073;-79
2024/01/23 03:29:14;;;;;;;52.05;32.63;;;5.20;86.30;;;;;;4974611;28;20149;-79
2024/01/23 03:31:39;;;;;;;40.05;28.58;;;5.20;86.10;;;;;;4989747;28;20480;-80
2024/01/23 03:34:05;;;;;;;45.90;31.90;;;5.20;85.90;;;;;;4992134;28;20388;-80
2024/01/23 03:36:31;;;;;;;42.95;30.52;;;5.10;86.00;;;;;;4977336;28;20100;-80
2024/01/23 03:38:57;;;;;;;44.70;30.08;;;5.10;85.90;;;;;;4982253;28;20113;-80
2024/01/23 03:41:22;;;;;;;45.25;30.15;;;5.00;86.00;;;;;;4979940;28;20035;-80
2024/01/23 03:43:48;;;;;;;46.28;29.08;;;5.00;86.30;;;;;;4976065;28;20030;-80
2024/01/23 03:46:13;;;;;;;55.13;38.40;;;5.00;86.20;;;;;;4978312;28;20026;-80
2024/01/23 03:48:39;;;;;;;46.80;31.48;;;5.00;86.10;;;;;;4988655;28;20408;-80
2024/01/23 03:51:05;;;;;;;47.03;30.80;;;5.00;86.10;;;;;;4978805;28;20031;-80
2024/01/23 03:53:30;;;;;;;55.55;36.78;;;4.90;86.20;;;;;;4981651;28;20038;-80
2024/01/23 03:55:58;;;;;;;44.90;30.23;;;4.80;86.50;;;;;;4980711;28;20031;-80
2024/01/23 03:58:24;;;;;;;45.97;29.98;;;4.80;86.60;;;;;;4976813;28;20035;-80
2024/01/23 04:00:49;;;;;;;43.00;29.88;;;4.80;86.80;;;;;;4957559;28;20350;-80
2024/01/23 04:03:15;;;;;;;46.10;29.08;;;4.80;87.00;;;;;;4964739;28;20038;-80
2024/01/23 04:05:41;;;;;;;42.35;28.98;;;4.80;87.20;;;;;;4979759;28;20026;-81
2024/01/23 04:08:08;;;;;;;45.40;30.70;;;4.90;87.20;;;;;;4958919;28;20382;-80
2024/01/23 04:10:33;;;;;;;46.38;29.90;;;4.90;87.20;;;;;;4958399;28;20357;-80
2024/01/23 04:12:59;;;;;;;42.13;29.08;;;4.90;87.10;;;;;;4985912;28;20035;-80
2024/01/23 04:15:26;;;;;;;41.95;29.63;;;4.90;86.80;;;;;;4979172;28;20484;-80
2024/01/23 04:17:55;;;;;;;45.88;30.63;;;4.90;86.90;;;;;;4975639;28;20087;-80
2024/01/23 04:20:20;;;;;;;46.38;30.13;;;4.90;86.80;;;;;;4978885;28;20026;-80
2024/01/23 04:22:46;;;;;;;44.28;30.20;;;4.90;86.80;;;;;;4983285;28;20036;-79
2024/01/23 04:25:12;;;;;;;42.08;29.48;;;4.90;86.80;;;;;;4979975;28;20041;-79
2024/01/23 04:27:38;;;;;;;48.90;31.05;;;4.80;86.80;;;;;;4983983;28;20096;-80
2024/01/23 04:30:04;;;;;;;44.08;29.83;;;4.90;87.00;;;;;;4983850;28;20438;-79
2024/01/23 04:32:29;;;;;;;39.75;28.05;;;4.90;86.80;;;;;;4975764;28;20034;-79
2024/01/23 04:34:55;;;;;;;37.55;27.88;;;4.90;86.80;;;;;;4976060;28;20023;-79
2024/01/23 04:37:22;;;;;;;43.55;30.48;;;4.80;86.90;;;;;;4975888;28;20054;-79
2024/01/23 04:39:48;;;;;;;42.85;29.45;;;4.80;87.00;;;;;;4976124;28;20416;-80
2024/01/23 04:42:14;;;;;;;39.38;26.70;;;4.80;86.70;;;;;;4993430;28;20039;-80
2024/01/23 04:44:39;;;;;;;44.65;27.80;;;4.80;86.60;;;;;;4980823;28;20023;-80
2024/01/23 04:47:05;;;;;;;37.03;26.27;;;4.80;86.40;;;;;;4979137;28;20042;-80
2024/01/23 04:49:31;;;;;;;34.05;24.73;;;4.70;86.30;;;;;;4980281;28;20027;-80
2024/01/23 04:51:56;;;;;;;34.05;25.20;;;4.70;86.00;;;;;;4983663;28;20483;-80
2024/01/23 04:54:23;;;;;;;39.92;25.00;;;4.60;86.30;;;;;;4995262;28;20026;-79
2024/01/23 04:56:49;;;;;;;33.45;24.38;;;4.70;86.50;;;;;;4981870;28;20022;-80
2024/01/23 04:59:15;;;;;;;38.55;26.70;;;4.70;86.60;;;;;;4986952;28;20376;-80
2024/01/23 05:01:40;;;;;;;37.38;24.75;;;4.70;86.30;;;;;;4981556;28;20026;-80
2024/01/23 05:04:06;;;;;;;40.13;25.38;;;4.70;85.80;;;;;;4994371;28;20022;-80
2024/01/23 05:06:31;;;;;;;36.05;26.15;;;4.70;86.00;;;;;;4960970;28;20129;-80
2024/01/23 05:08:57;;;;;;;38.13;24.42;;;4.70;86.20;;;;;;4984393;28;20049;-80
2024/01/23 05:11:23;;;;;;;36.65;25.17;;;4.70;86.20;;;;;;4991347;28;20045;-80
2024/01/23 05:13:49;;;;;;;34.10;24.15;;;4.80;85.90;;;;;;4994225;28;20023;-80
2024/01/23 05:16:15;;;;;;;30.80;22.67;;;4.80;85.80;;;;;;4983093;28;20031;-79
2024/01/23 05:18:40;;;;;;;31.92;22.95;;;4.80;85.30;;;;;;4988923;28;20469;-81
2024/01/23 05:21:06;;;;;;;30.42;22.48;;;4.80;85.10;;;;;;4993721;28;20022;-80
2024/01/23 05:23:32;;;;;;;31.55;21.80;;;4.80;85.00;;;;;;4976672;28;20060;-80
2024/01/23 05:25:57;;;;;;;34.95;22.48;;;4.80;84.50;;;;;;4986472;28;20477;-80
2024/01/23 05:28:23;;;;;;;25.15;17.83;;;4.80;84.30;;;;;;4975106;28;20110;-80
2024/01/23 05:30:57;;;;;;;30.38;20.35;;;4.80;83.00;;;;;;4979753;28;20049;-81
2024/01/23 05:33:23;;;;;;;30.35;20.73;;;4.70;83.60;;;;;;4974785;28;20034;-80
2024/01/23 05:35:49;;;;;;;29.02;20.40;;;4.70;83.10;;;;;;4982085;28;20373;-81
2024/01/23 05:38:15;;;;;;;31.75;21.40;;;4.60;83.70;;;;;;4982447;28;20023;-81
2024/01/23 05:40:43;;;;;;;37.25;24.65;;;4.60;83.90;;;;;;4970743;28;20042;-81
2024/01/23 05:43:09;;;;;;;38.72;25.42;;;4.60;83.50;;;;;;4974897;28;20085;-80
2024/01/23 05:45:34;;;;;;;39.85;27.75;;;4.50;83.70;;;;;;4974027;28;20022;-80
2024/01/23 05:48:00;;;;;;;25.60;17.83;;;4.40;84.10;;;;;;4982158;28;20033;-80
2024/01/23 05:50:25;;;;;;;27.45;19.00;;;4.30;84.20;;;;;;4974265;28;20039;-80
2024/01/23 05:52:53;;;;;;;34.88;23.05;;;4.30;84.40;;;;;;4974428;28;20031;-80
2024/01/23 05:55:18;;;;;;;27.83;20.55;;;4.30;84.70;;;;;;4973110;28;20053;-80
2024/01/23 05:57:44;;;;;;;29.80;21.85;;;4.30;84.50;;;;;;4980014;28;20590;-80
2024/01/23 06:00:13;;;;;;;34.08;23.27;;;4.30;84.60;;;;;;4990949;28;20429;-81
2024/01/23 06:02:42;;;;;;;29.63;19.98;;;4.30;84.70;;;;;;4989291;28;20027;-80
2024/01/23 06:05:11;;;;;;;32.55;21.95;;;4.20;84.90;;;;;;4983870;28;20043;-81
2024/01/23 06:07:41;;;;;;;32.42;22.10;;;4.20;85.10;;;;;;4956435;28;20504;-81
2024/01/23 06:10:10;;;;;;;44.53;27.98;;;4.20;85.10;;;;;;4962194;28;20034;-80
2024/01/23 06:12:36;;;;;;;41.53;28.35;;;4.20;85.20;;;;;;4988770;28;20066;-81
2024/01/23 06:15:06;;;;;;;39.17;23.73;;;4.10;85.50;;;;;;4979347;28;20527;-81
2024/01/23 06:17:36;;;;;;;37.08;26.10;;;4.00;85.60;;;;;;4962534;28;20037;-81
2024/01/23 06:20:05;;;;;;;41.13;29.75;;;4.10;85.80;;;;;;4984505;28;20094;-81
2024/01/23 06:22:32;;;;;;;44.95;28.10;;;4.10;86.00;;;;;;4973897;28;20023;-80
2024/01/23 06:25:08;;;;;;;36.50;26.70;;;4.10;86.00;;;;;;4956604;28;20074;-79
2024/01/23 06:27:37;;;;;;;39.67;25.90;;;4.20;86.30;;;;;;4978087;28;20477;-78
2024/01/23 06:30:04;;;;;;;39.05;25.98;;;4.20;86.30;;;;;;4984820;28;20489;-79
2024/01/23 06:32:36;;;;;;;37.83;26.70;;;4.30;85.90;;;;;;4991476;28;20045;-79
2024/01/23 06:35:02;;;;;;;34.30;23.77;;;4.30;85.60;;;;;;4992346;28;20108;-79
2024/01/23 06:37:28;;;;;;;40.90;26.38;;;4.20;85.60;;;;;;4982950;28;20042;-79
2024/01/23 06:39:54;;;;;;;35.35;24.05;;;4.30;86.30;;;;;;4993171;28;20097;-79
2024/01/23 06:42:19;;;;;;;37.35;25.13;;;4.30;85.70;;;;;;4981512;28;20029;-79
2024/01/23 06:44:45;;;;;;;29.08;21.27;;;4.30;85.60;;;;;;4956056;28;20034;-79
2024/01/23 06:47:10;;;;;;;30.23;21.63;;;4.30;85.20;;;;;;4975268;28;20473;-79
2024/01/23 06:49:36;;;;;;;40.55;23.83;;;4.30;85.10;;;;;;4978114;28;20037;-79
2024/01/23 06:52:02;;;;;;;27.05;18.75;;;4.30;84.60;;;;;;4983370;28;20022;-80
2024/01/23 06:54:28;;;;;;;31.45;22.50;;;4.30;84.70;;;;;;4981144;28;20035;-80
2024/01/23 06:56:54;;;;;;;31.17;21.63;;;4.20;84.90;;;;;;4976298;28;20042;-80
2024/01/23 06:59:20;;;;;;;31.42;22.13;;;4.30;85.10;;;;;;4991465;28;20046;-76
2024/01/23 07:01:46;;;;;;;34.55;23.85;;;4.30;84.90;;;;;;4963921;28;20030;-78
2024/01/23 07:04:11;;;;;;;31.70;22.15;;;4.30;85.00;;;;;;4980642;28;20039;-77
2024/01/23 07:06:37;;;;;;;35.67;22.77;;;4.30;84.80;;;;;;4976904;28;20086;-76
2024/01/23 07:09:04;;;;;;;37.70;24.52;;;4.30;85.00;;;;;;4991276;28;20042;-77
2024/01/23 07:11:30;;;;;;;34.75;25.02;;;4.40;85.20;;;;;;4973458;28;20113;-76
2024/01/23 07:13:56;;;;;;;31.70;24.00;;;4.40;85.10;;;;;;4974898;28;20122;-76
2024/01/23 07:16:22;;;;;;;30.00;20.83;;;4.40;85.30;;;;;;4979072;28;20101;-76
2024/01/23 07:18:47;;;;;;;29.60;19.70;;;4.50;85.60;;;;;;4986409;28;20122;-78
2024/01/23 07:21:14;;;;;;;29.85;21.75;;;4.50;85.90;;;;;;4970981;28;20035;-78
2024/01/23 07:23:40;;;;;;;31.40;21.65;;;4.60;85.10;;;;;;4982550;28;20444;-77
2024/01/23 07:26:05;;;;;;;34.08;23.15;;;4.60;84.90;;;;;;4963052;28;20085;-78
2024/01/23 07:28:31;;;;;;;30.05;22.38;;;4.60;84.80;;;;;;4976019;28;20042;-78
2024/01/23 07:30:57;;;;;;;30.75;21.63;;;4.60;84.30;;;;;;4975038;28;20701;-79
2024/01/23 07:33:23;;;;;;;26.92;18.67;;;4.60;84.10;;;;;;4983720;28;20071;-78
2024/01/23 07:35:50;;;;;;;30.52;20.77;;;4.60;84.40;;;;;;4958395;28;20026;-78
2024/01/23 07:38:16;;;;;;;24.73;18.40;;;4.70;83.70;;;;;;4958453;28;20362;-78
2024/01/23 07:40:41;;;;;;;28.42;20.08;;;4.60;83.40;;;;;;4976160;28;20023;-78
2024/01/23 07:43:07;;;;;;;30.33;19.52;;;4.70;83.20;;;;;;4975123;28;20114;-78
2024/01/23 07:45:33;;;;;;;27.38;19.38;;;4.60;82.80;;;;;;4975842;28;20082;-78
2024/01/23 07:47:59;;;;;;;27.13;18.83;;;4.70;83.00;;;;;;4960001;28;20720;-77
2024/01/23 07:50:27;;;;;;;28.80;18.88;;;4.70;82.70;;;;;;4989787;28;20089;-78
2024/01/23 07:52:53;;;;;;;26.02;17.80;;;4.70;82.70;;;;;;4973256;28;20457;-78
2024/01/23 07:55:19;;;;;;;28.95;19.20;;;4.70;82.40;;;;;;4976553;28;20034;-78
2024/01/23 07:57:44;;;;;;;28.45;19.63;;;4.70;82.70;;;;;;4959864;28;20377;-78
2024/01/23 08:00:11;;;;;;;30.02;19.60;;;4.70;83.00;;;;;;4977587;28;20019;-78
2024/01/23 08:02:37;;;;;;;29.35;19.98;;;4.70;82.80;;;;;;4988527;28;20400;-78
2024/01/23 08:05:03;;;;;;;28.67;19.20;;;4.80;82.40;;;;;;4981940;28;20033;-79
2024/01/23 08:07:28;;;;;;;29.73;20.33;;;4.80;82.20;;;;;;4977105;28;20042;-77
2024/01/23 08:09:54;;;;;;;27.73;19.27;;;4.80;82.10;;;;;;4975297;28;20026;-77
2024/01/23 08:12:20;;;;;;;27.13;18.65;;;4.80;81.60;;;;;;4957811;28;20081;-77
2024/01/23 08:14:46;;;;;;;24.50;17.75;;;4.80;82.30;;;;;;4975652;28;20078;-79
2024/01/23 08:17:11;;;;;;;28.23;17.42;;;4.80;81.90;;;;;;4969195;28;20036;-79
2024/01/23 08:19:39;;;;;;;25.40;18.17;;;4.80;82.00;;;;;;4995219;28;20488;-79
2024/01/23 08:22:05;;;;;;;25.27;17.73;;;4.90;82.10;;;;;;4987668;28;20476;-79
2024/01/23 08:24:31;;;;;;;32.72;20.60;;;5.00;82.00;;;;;;4975819;28;20109;-79
2024/01/23 08:26:57;;;;;;;46.08;28.83;;;4.90;81.20;;;;;;4975778;28;20034;-79
2024/01/23 08:29:23;;;;;;;59.75;39.35;;;5.00;81.90;;;;;;4975738;28;20022;-79
2024/01/23 08:31:48;;;;;;;48.80;31.33;;;5.00;81.40;;;;;;4975157;28;20034;-77
2024/01/23 08:34:15;;;;;;;55.75;34.20;;;5.10;81.40;;;;;;4975102;28;20042;-77
2024/01/23 08:36:40;;;;;;;51.10;33.33;;;5.10;81.60;;;;;;4965097;28;20030;-77
2024/01/23 08:39:06;;;;;;;49.92;33.10;;;5.20;81.90;;;;;;4993358;28;20030;-77
2024/01/23 08:41:32;;;;;;;57.25;36.65;;;5.30;82.10;;;;;;4978237;28;20143;-77
2024/01/23 08:43:57;;;;;;;42.65;29.00;;;5.40;82.00;;;;;;4994951;28;20509;-77
2024/01/23 08:46:23;;;;;;;53.15;33.47;;;5.50;81.80;;;;;;4987787;28;20045;-77
2024/01/23 08:48:49;;;;;;;48.20;32.63;;;5.60;83.70;;;;;;4994516;28;20042;-77
2024/01/23 08:51:24;;;;;;;49.08;32.08;;;5.80;82.90;;;;;;4976245;28;20030;-77
2024/01/23 08:53:53;;;;;;;52.95;32.72;;;5.90;82.30;;;;;;4976997;28;20082;-77
2024/01/23 08:56:23;;;;;;;38.17;24.65;;;6.10;80.70;;;;;;4984834;28;20031;-77
2024/01/23 08:58:49;;;;;;;36.42;24.70;;;6.20;81.10;;;;;;4983210;28;20027;-77
2024/01/23 09:01:16;;;;;;;33.50;22.70;;;6.40;81.50;;;;;;4979174;28;20023;-77
2024/01/23 09:03:42;;;;;;;32.13;22.83;;;6.60;81.10;;;;;;4981841;28;20101;-77
2024/01/23 09:06:09;;;;;;;36.88;23.00;;;6.70;81.00;;;;;;4962085;28;20038;-77
2024/01/23 09:08:35;;;;;;;35.45;23.05;;;7.00;80.80;;;;;;4974800;28;20469;-77
2024/01/23 09:11:01;;;;;;;32.80;22.10;;;7.20;80.60;;;;;;4964759;28;20034;-79
2024/01/23 09:13:31;;;;;;;25.58;18.65;;;7.40;80.10;;;;;;4980294;28;20035;-79
2024/01/23 09:16:00;;;;;;;22.20;16.25;;;7.60;79.50;;;;;;4978136;28;20022;-80
2024/01/23 09:18:27;;;;;;;23.85;15.50;;;7.60;78.20;;;;;;4984951;28;20053;-80
2024/01/23 09:20:53;;;;;;;21.17;14.55;;;7.70;77.10;;;;;;4986592;28;20081;-80
2024/01/23 09:23:19;;;;;;;20.52;14.70;;;7.80;77.50;;;;;;4974811;28;20150;-79
2024/01/23 09:25:45;;;;;;;19.35;14.40;;;7.90;77.40;;;;;;4984058;28;20068;-79
2024/01/23 09:28:11;;;;;;;18.77;13.68;;;8.10;77.00;;;;;;4990070;28;20065;-79
2024/01/23 09:30:37;;;;;;;21.70;14.20;;;8.20;76.90;;;;;;4992225;28;20027;-80
2024/01/23 09:33:03;;;;;;;19.48;13.48;;;8.40;76.50;;;;;;4963311;28;20081;-80
2024/01/23 09:35:30;;;;;;;18.08;14.02;;;8.60;76.10;;;;;;4975539;28;20094;-80
2024/01/23 09:37:56;;;;;;;20.20;13.60;;;8.70;75.90;;;;;;4978868;28;20023;-80
2024/01/23 09:40:22;;;;;;;16.33;12.30;;;8.80;75.40;;;;;;4979909;28;20448;-80
2024/01/23 09:42:48;;;;;;;18.52;12.82;;;9.00;75.00;;;;;;4974601;28;20045;-77
2024/01/23 09:45:18;;;;;;;17.88;12.13;;;9.10;74.90;;;;;;4982364;28;20018;-77
2024/01/23 09:47:48;;;;;;;18.23;13.20;;;9.20;74.60;;;;;;4978993;28;20638;-77
2024/01/23 09:50:17;;;;;;;16.90;12.10;;;9.40;74.10;;;;;;4974081;28;20030;-77
2024/01/23 09:52:45;;;;;;;19.52;14.15;;;9.50;73.80;;;;;;4961394;28;20035;-77
2024/01/23 09:55:11;;;;;;;19.33;14.52;;;9.70;73.10;;;;;;4961758;28;20028;-78
2024/01/23 09:57:39;;;;;;;21.33;14.38;;;9.80;72.20;;;;;;4983576;28;20468;-76
2024/01/23 10:00:13;;;;;;;17.33;12.85;;;9.90;71.70;;;;;;4973028;28;20033;-77
2024/01/23 10:02:40;;;;;;;17.05;12.38;;;9.90;69.40;;;;;;4979805;28;20729;-77
2024/01/23 10:05:14;;;;;;;16.48;12.10;;;10.00;70.90;;;;;;4986377;28;20026;-77
2024/01/23 10:07:40;;;;;;;18.00;12.40;;;10.10;71.20;;;;;;4982803;28;20038;-77
2024/01/23 10:10:14;;;;;;;17.75;13.38;;;10.20;70.90;;;;;;4969175;28;20078;-78
2024/01/23 10:12:49;;;;;;;18.75;13.15;;;10.40;70.90;;;;;;4984887;28;20019;-78
2024/01/23 10:15:18;;;;;;;20.55;14.18;;;10.50;69.90;;;;;;4967117;28;20110;-80
2024/01/23 10:17:47;;;;;;;20.38;14.90;;;10.50;67.30;;;;;;4972552;28;20027;-80
2024/01/23 10:20:13;;;;;;;16.50;12.77;;;10.20;67.50;;;;;;4971745;28;20043;-78
2024/01/23 10:22:39;;;;;;;15.63;11.15;;;10.10;69.60;;;;;;4978067;28;20114;-80
2024/01/23 10:25:10;;;;;;;18.55;13.05;;;10.20;70.30;;;;;;4981798;28;20030;-77
2024/01/23 10:27:36;;;;;;;16.48;11.65;;;10.40;69.80;;;;;;4987347;28;20026;-80
2024/01/23 10:30:03;;;;;;;14.32;10.98;;;10.60;70.20;;;;;;4985779;28;20038;-78
2024/01/23 10:32:30;;;;;;;15.27;11.13;;;10.90;70.70;;;;;;4985809;28;20034;-79
2024/01/23 10:34:56;;;;;;;15.07;11.25;;;11.10;69.50;;;;;;4978335;28;20019;-78
2024/01/23 10:37:21;;;;;;;13.00;9.80;;;11.30;68.10;;;;;;4978608;28;20353;-79
2024/01/23 10:39:53;;;;;;;11.75;8.65;;;11.50;68.50;;;;;;4968274;28;20038;-79
2024/01/23 10:42:20;;;;;;;10.35;8.98;;;11.70;68.70;;;;;;4965249;28;20150;-78
2024/01/23 10:44:49;;;;;;;11.25;9.60;;;12.00;68.10;;;;;;4971678;28;20373;-78
2024/01/23 10:47:15;;;;;;;14.87;11.57;;;12.30;66.90;;;;;;4972595;28;20035;-78
2024/01/23 10:49:45;;;;;;;11.98;9.13;;;12.30;62.40;;;;;;4977149;28;20266;-78
2024/01/23 10:52:16;;;;;;;9.43;8.40;;;12.30;64.80;;;;;;4955621;28;20027;-78
2024/01/23 10:54:52;;;;;;;9.65;8.55;;;12.30;64.10;;;;;;4973243;28;20097;-80
2024/01/23 10:57:23;;;;;;;11.52;8.88;;;12.40;65.10;;;;;;4974669;28;20113;-77
2024/01/23 10:59:49;;;;;;;16.70;11.55;;;12.50;65.00;;;;;;4983362;28;20046;-76
2024/01/23 11:02:40;;;;;;;13.85;9.25;;;12.50;62.00;;;;;;4987601;28;20027;-78
2024/01/23 11:05:06;;;;;;;15.93;9.00;;;12.40;64.20;;;;;;4963919;28;20066;-79
2024/01/23 11:07:56;;;;;;;14.05;10.57;;;12.50;64.50;;;;;;4973243;28;20043;-80
2024/01/23 11:10:38;;;;;;;16.67;12.13;;;12.60;61.80;;;;;;4963448;28;20663;-80
2024/01/23 11:13:30;;;;;;;11.55;9.10;;;12.60;61.70;;;;;;4977420;28;20035;-80
2024/01/23 11:15:57;;;;;;;12.45;10.23;;;12.50;63.00;;;;;;4977362;28;20074;-76
2024/01/23 11:18:28;;;;;;;12.45;8.77;;;12.50;62.80;;;;;;4977404;28;20039;-76
2024/01/23 11:21:05;;;;;;;12.10;10.10;;;12.60;64.20;;;;;;4977110;28;20026;-76
2024/01/23 11:24:01;;;;;;;11.40;8.93;;;12.80;62.10;;;;;;4977847;28;20035;-77
2024/01/23 11:26:27;;;;;;;13.00;9.63;;;12.90;62.90;;;;;;4976287;28;20088;-77
2024/01/23 11:28:54;;;;;;;11.25;9.27;;;13.10;63.60;;;;;;4975741;28;20027;-77
2024/01/23 11:31:21;;;;;;;11.23;9.25;;;13.30;64.10;;;;;;4975696;28;20023;-77
2024/01/23 11:33:48;;;;;;;12.25;9.35;;;13.50;64.70;;;;;;4975703;28;20138;-77
2024/01/23 11:36:27;;;;;;;10.50;9.25;;;13.60;62.60;;;;;;4976373;28;20385;-77
2024/01/23 11:38:57;;;;;;;17.08;12.02;;;13.70;63.40;;;;;;4975725;28;20035;-78
2024/01/23 11:41:24;;;;;;;12.05;10.50;;;13.70;60.20;;;;;;4977079;28;20070;-79
2024/01/23 11:44:03;;;;;;;16.58;12.18;;;13.80;61.70;;;;;;4975265;28;20041;-79
2024/01/23 11:46:30;;;;;;;15.32;11.38;;;14.00;61.40;;;;;;4976266;28;20057;-79
2024/01/23 11:48:55;;;;;;;16.67;11.98;;;14.20;61.20;;;;;;4975783;28;20045;-79
2024/01/23 11:51:22;;;;;;;15.30;12.32;;;14.40;61.40;;;;;;4976133;28;20035;-79
2024/01/23 11:53:48;;;;;;;16.33;13.95;;;14.70;60.30;;;;;;4991108;28;20031;-77
2024/01/23 11:56:15;;;;;;;13.65;11.85;;;15.30;58.00;;;;;;4976089;28;20457;-77
2024/01/23 11:58:42;;;;;;;14.38;12.77;;;16.40;60.90;;;;;;4975914;28;20023;-80
2024/01/23 12:01:14;;;;;;;15.02;12.73;;;17.70;59.10;;;;;;4975706;28;20038;-78
2024/01/23 12:03:50;;;;;;;13.25;11.50;;;18.90;52.70;;;;;;4958201;28;20377;-78
2024/01/23 12:06:17;;;;;;;15.75;13.30;;;20.00;53.30;;;;;;5010168;23;20059;-86
2024/01/23 12:08:43;;;;;;;15.27;12.45;;;20.80;49.90;;;;;;4977836;28;20031;-87
2024/01/23 12:11:09;;;;;;;12.70;10.43;;;21.40;47.40;;;;;;4969390;28;20121;-86
2024/01/23 12:13:38;;;;;;;14.82;12.07;;;21.80;47.30;;;;;;4966382;28;20037;-86
2024/01/23 12:16:10;;;;;;;11.18;9.07;;;22.30;46.10;;;;;;4967434;28;20023;-86
2024/01/23 12:18:36;;;;;;;11.55;10.10;;;22.10;44.10;;;;;;4963706;28;20015;-86
2024/01/23 12:21:04;;;;;;;13.93;9.38;;;22.20;45.80;;;;;;4957279;28;20521;-86
2024/01/23 12:23:33;;;;;;;14.73;13.13;;;22.40;45.20;;;;;;4973077;28;20042;-87
2024/01/23 12:25:59;;;;;;;10.68;9.57;;;22.50;42.80;;;;;;4978023;28;20110;-87
2024/01/23 12:28:32;;;;;;;9.80;8.05;;;22.50;44.70;;;;;;4977889;28;20037;-87
2024/01/23 12:30:58;;;;;;;9.80;8.80;;;22.50;44.50;;;;;;4970271;28;20102;-87
2024/01/23 12:33:25;;;;;;;12.68;10.05;;;22.90;44.30;;;;;;4975558;28;20126;-87
2024/01/23 12:35:52;;;;;;;14.95;12.32;;;23.20;42.90;;;;;;4977355;28;20026;-87